sensor_id;sensor_type;location;lat;lon;timestamp;pressure;altitude;pressure_sealevel;temperature;humidity
61474;BME280;53694;49.784;30.150;2023-03-18T00:00:37;100502.29;;;7.44;65.88
61474;BME280;53694;49.784;30.150;2023-03-18T00:01:39;100502.75;;;7.37;65.81
61474;BME280;53694;49.784;30.150;2023-03-18T00:02:40;100498.05;;;7.20;65.68
61474;BME280;53694;49.784;30.150;2023-03-18T00:03:41;100501.67;;;6.98;66.30
61474;BME280;53694;49.784;30.150;2023-03-18T00:04:43;100498.22;;;6.75;66.76
61474;BME280;53694;49.784;30.150;2023-03-18T00:05:45;100501.30;;;6.51;67.62
61474;BME280;53694;49.784;30.150;2023-03-18T00:06:47;100493.16;;;6.29;68.54
61474;BME280;53694;49.784;30.150;2023-03-18T00:07:48;100502.64;;;6.09;68.96
61474;BME280;53694;49.784;30.150;2023-03-18T00:08:50;100503.89;;;5.89;69.61
61474;BME280;53694;49.784;30.150;2023-03-18T00:09:51;100504.87;;;5.71;70.17
61474;BME280;53694;49.784;30.150;2023-03-18T00:10:53;100501.67;;;5.55;70.91
61474;BME280;53694;49.784;30.150;2023-03-18T00:11:55;100506.03;;;5.42;71.59
61474;BME280;53694;49.784;30.150;2023-03-18T00:12:56;100509.47;;;5.34;72.06
61474;BME280;53694;49.784;30.150;2023-03-18T00:13:58;100510.36;;;5.43;72.57
61474;BME280;53694;49.784;30.150;2023-03-18T00:14:59;100504.19;;;5.65;72.31
61474;BME280;53694;49.784;30.150;2023-03-18T00:16:01;100504.79;;;5.98;72.08
61474;BME280;53694;49.784;30.150;2023-03-18T00:17:04;100507.46;;;6.35;70.62
61474;BME280;53694;49.784;30.150;2023-03-18T00:18:06;100494.95;;;6.65;69.36
61474;BME280;53694;49.784;30.150;2023-03-18T00:19:07;100505.20;;;6.99;68.56
61474;BME280;53694;49.784;30.150;2023-03-18T00:20:11;100503.38;;;7.34;67.58
61474;BME280;53694;49.784;30.150;2023-03-18T00:21:12;100500.68;;;7.60;66.55
61474;BME280;53694;49.784;30.150;2023-03-18T00:22:14;100498.28;;;7.67;65.22
61474;BME280;53694;49.784;30.150;2023-03-18T00:23:16;100500.68;;;7.60;65.54
61474;BME280;53694;49.784;30.150;2023-03-18T00:24:17;100499.23;;;7.45;65.52
61474;BME280;53694;49.784;30.150;2023-03-18T00:25:19;100499.82;;;7.25;65.91
61474;BME280;53694;49.784;30.150;2023-03-18T00:26:22;100512.45;;;7.04;66.20
61474;BME280;53694;49.784;30.150;2023-03-18T00:27:24;100513.95;;;6.79;66.85
61474;BME280;53694;49.784;30.150;2023-03-18T00:28:26;100514.63;;;6.53;67.56
61474;BME280;53694;49.784;30.150;2023-03-18T00:29:28;100516.58;;;6.30;68.18
61474;BME280;53694;49.784;30.150;2023-03-18T00:30:30;100513.35;;;6.06;68.83
61474;BME280;53694;49.784;30.150;2023-03-18T00:31:32;100508.98;;;5.82;69.55
61474;BME280;53694;49.784;30.150;2023-03-18T00:32:33;100514.38;;;5.60;70.40
61474;BME280;53694;49.784;30.150;2023-03-18T00:33:39;100504.42;;;5.41;71.22
61474;BME280;53694;49.784;30.150;2023-03-18T00:34:41;100507.46;;;5.26;72.13
61474;BME280;53694;49.784;30.150;2023-03-18T00:35:43;100508.69;;;5.20;72.82
61474;BME280;53694;49.784;30.150;2023-03-18T00:36:45;100506.55;;;5.31;73.08
61474;BME280;53694;49.784;30.150;2023-03-18T00:37:47;100502.98;;;5.58;72.84
61474;BME280;53694;49.784;30.150;2023-03-18T00:38:48;100509.05;;;5.91;72.08
61474;BME280;53694;49.784;30.150;2023-03-18T00:39:50;100505.00;;;6.24;70.66
61474;BME280;53694;49.784;30.150;2023-03-18T00:40:52;100508.73;;;6.60;69.55
61474;BME280;53694;49.784;30.150;2023-03-18T00:41:54;100510.48;;;6.95;68.41
61474;BME280;53694;49.784;30.150;2023-03-18T00:42:56;100506.27;;;7.29;67.10
61474;BME280;53694;49.784;30.150;2023-03-18T00:43:57;100505.84;;;7.53;65.73
61474;BME280;53694;49.784;30.150;2023-03-18T00:44:59;100505.84;;;7.62;64.71
61474;BME280;53694;49.784;30.150;2023-03-18T00:46:01;100503.27;;;7.57;64.45
61474;BME280;53694;49.784;30.150;2023-03-18T00:47:03;100500.66;;;7.43;65.21
61474;BME280;53694;49.784;30.150;2023-03-18T00:48:06;100509.15;;;7.24;65.47
61474;BME280;53694;49.784;30.150;2023-03-18T00:49:08;100509.24;;;7.01;65.76
61474;BME280;53694;49.784;30.150;2023-03-18T00:50:10;100508.48;;;6.79;65.64
61474;BME280;53694;49.784;30.150;2023-03-18T00:51:13;100510.11;;;6.48;66.30
61474;BME280;53694;49.784;30.150;2023-03-18T00:52:14;100502.56;;;6.23;67.34
61474;BME280;53694;49.784;30.150;2023-03-18T00:53:17;100504.98;;;6.02;67.92
61474;BME280;53694;49.784;30.150;2023-03-18T00:54:18;100500.29;;;5.80;68.73
61474;BME280;53694;49.784;30.150;2023-03-18T00:55:20;100496.93;;;5.61;69.38
61474;BME280;53694;49.784;30.150;2023-03-18T00:56:24;100500.78;;;5.46;70.08
61474;BME280;53694;49.784;30.150;2023-03-18T00:57:27;100496.17;;;5.33;70.79
61474;BME280;53694;49.784;30.150;2023-03-18T00:58:28;100494.76;;;5.21;71.44
61474;BME280;53694;49.784;30.150;2023-03-18T00:59:30;100495.67;;;5.17;71.51
61474;BME280;53694;49.784;30.150;2023-03-18T01:00:31;100503.02;;;5.30;72.13
61474;BME280;53694;49.784;30.150;2023-03-18T01:01:34;100511.45;;;5.56;71.72
61474;BME280;53694;49.784;30.150;2023-03-18T01:02:35;100498.44;;;5.89;70.65
61474;BME280;53694;49.784;30.150;2023-03-18T01:03:37;100502.27;;;6.24;69.73
61474;BME280;53694;49.784;30.150;2023-03-18T01:04:38;100501.02;;;6.62;68.36
61474;BME280;53694;49.784;30.150;2023-03-18T01:05:40;100507.77;;;6.95;67.02
61474;BME280;53694;49.784;30.150;2023-03-18T01:06:42;100507.55;;;7.23;66.31
61474;BME280;53694;49.784;30.150;2023-03-18T01:07:43;100501.77;;;7.33;65.10
61474;BME280;53694;49.784;30.150;2023-03-18T01:08:45;100511.91;;;7.33;65.25
61474;BME280;53694;49.784;30.150;2023-03-18T01:09:46;100499.98;;;7.20;65.47
61474;BME280;53694;49.784;30.150;2023-03-18T01:10:48;100504.26;;;7.04;65.94
61474;BME280;53694;49.784;30.150;2023-03-18T01:11:49;100507.25;;;6.85;66.56
61474;BME280;53694;49.784;30.150;2023-03-18T01:12:52;100511.94;;;6.62;66.31
61474;BME280;53694;49.784;30.150;2023-03-18T01:13:54;100509.25;;;6.39;67.14
61474;BME280;53694;49.784;30.150;2023-03-18T01:14:55;100511.36;;;6.20;67.79
61474;BME280;53694;49.784;30.150;2023-03-18T01:15:57;100516.20;;;6.00;68.54
61474;BME280;53694;49.784;30.150;2023-03-18T01:16:59;100515.72;;;5.85;69.17
61474;BME280;53694;49.784;30.150;2023-03-18T01:18:00;100512.23;;;5.70;70.12
61474;BME280;53694;49.784;30.150;2023-03-18T01:19:02;100512.28;;;5.57;69.88
61474;BME280;53694;49.784;30.150;2023-03-18T01:20:04;100513.09;;;5.43;70.46
61474;BME280;53694;49.784;30.150;2023-03-18T01:21:07;100515.72;;;5.35;70.82
61474;BME280;53694;49.784;30.150;2023-03-18T01:22:09;100511.11;;;5.35;71.03
61474;BME280;53694;49.784;30.150;2023-03-18T01:23:11;100517.45;;;5.44;71.21
61474;BME280;53694;49.784;30.150;2023-03-18T01:24:13;100521.14;;;5.62;70.62
61474;BME280;53694;49.784;30.150;2023-03-18T01:25:14;100527.94;;;5.87;69.74
61474;BME280;53694;49.784;30.150;2023-03-18T01:26:16;100528.84;;;6.19;69.32
61474;BME280;53694;49.784;30.150;2023-03-18T01:27:18;100530.20;;;6.53;68.53
61474;BME280;53694;49.784;30.150;2023-03-18T01:28:20;100533.24;;;6.82;67.56
61474;BME280;53694;49.784;30.150;2023-03-18T01:29:22;100531.86;;;6.93;66.51
61474;BME280;53694;49.784;30.150;2023-03-18T01:30:24;100529.75;;;6.90;65.89
61474;BME280;53694;49.784;30.150;2023-03-18T01:31:26;100520.06;;;6.75;65.86
61474;BME280;53694;49.784;30.150;2023-03-18T01:32:28;100522.19;;;6.56;66.38
61474;BME280;53694;49.784;30.150;2023-03-18T01:33:29;100522.23;;;6.34;66.64
61474;BME280;53694;49.784;30.150;2023-03-18T01:34:31;100526.57;;;6.12;67.40
61474;BME280;53694;49.784;30.150;2023-03-18T01:35:34;100525.21;;;5.87;68.16
61474;BME280;53694;49.784;30.150;2023-03-18T01:36:36;100531.44;;;5.65;68.84
61474;BME280;53694;49.784;30.150;2023-03-18T01:37:38;100528.34;;;5.44;69.75
61474;BME280;53694;49.784;30.150;2023-03-18T01:38:39;100536.41;;;5.22;70.38
61474;BME280;53694;49.784;30.150;2023-03-18T01:39:41;100530.77;;;5.05;71.38
61474;BME280;53694;49.784;30.150;2023-03-18T01:40:43;100535.62;;;4.94;72.35
61474;BME280;53694;49.784;30.150;2023-03-18T01:41:44;100538.13;;;4.90;73.00
61474;BME280;53694;49.784;30.150;2023-03-18T01:42:52;100535.52;;;4.99;72.84
61474;BME280;53694;49.784;30.150;2023-03-18T01:43:51;100532.08;;;5.21;72.35
61474;BME280;53694;49.784;30.150;2023-03-18T01:45:12;100535.80;;;5.53;71.85
61474;BME280;53694;49.784;30.150;2023-03-18T01:46:29;100526.33;;;5.86;71.07
61474;BME280;53694;49.784;30.150;2023-03-18T01:47:31;100532.95;;;6.30;69.33
61474;BME280;53694;49.784;30.150;2023-03-18T01:48:34;100533.82;;;6.70;68.08
61474;BME280;53694;49.784;30.150;2023-03-18T01:49:48;100535.43;;;7.03;66.97
61474;BME280;53694;49.784;30.150;2023-03-18T01:50:59;100541.13;;;7.23;66.05
61474;BME280;53694;49.784;30.150;2023-03-18T01:53:09;100537.09;;;7.21;65.70
61474;BME280;53694;49.784;30.150;2023-03-18T01:54:13;100537.18;;;6.98;65.05
61474;BME280;53694;49.784;30.150;2023-03-18T01:55:18;100534.33;;;6.72;65.63
61474;BME280;53694;49.784;30.150;2023-03-18T01:56:20;100532.73;;;6.49;66.56
61474;BME280;53694;49.784;30.150;2023-03-18T01:57:22;100536.90;;;6.24;67.00
61474;BME280;53694;49.784;30.150;2023-03-18T01:58:27;100539.14;;;5.99;67.33
61474;BME280;53694;49.784;30.150;2023-03-18T01:59:31;100526.23;;;5.77;68.03
61474;BME280;53694;49.784;30.150;2023-03-18T02:00:37;100545.78;;;5.57;68.93
61474;BME280;53694;49.784;30.150;2023-03-18T02:01:49;100540.75;;;5.37;69.76
61474;BME280;53694;49.784;30.150;2023-03-18T02:02:52;100544.09;;;5.20;70.37
61474;BME280;53694;49.784;30.150;2023-03-18T02:03:54;100549.83;;;5.05;71.34
61474;BME280;53694;49.784;30.150;2023-03-18T02:05:00;100549.02;;;4.90;71.80
61474;BME280;53694;49.784;30.150;2023-03-18T02:06:01;100548.00;;;4.86;72.66
61474;BME280;53694;49.784;30.150;2023-03-18T02:07:03;100543.47;;;4.95;72.30
61474;BME280;53694;49.784;30.150;2023-03-18T02:08:05;100553.66;;;5.17;71.86
61474;BME280;53694;49.784;30.150;2023-03-18T02:09:06;100551.14;;;5.48;71.18
61474;BME280;53694;49.784;30.150;2023-03-18T02:10:20;100550.03;;;5.86;70.75
61474;BME280;53694;49.784;30.150;2023-03-18T02:11:19;100549.45;;;6.25;69.51
61474;BME280;53694;49.784;30.150;2023-03-18T02:12:26;100545.68;;;6.66;68.07
61474;BME280;53694;49.784;30.150;2023-03-18T02:13:28;100544.75;;;7.01;67.20
61474;BME280;53694;49.784;30.150;2023-03-18T02:14:30;100551.58;;;7.30;65.97
61474;BME280;53694;49.784;30.150;2023-03-18T02:15:33;100544.72;;;7.41;64.94
61474;BME280;53694;49.784;30.150;2023-03-18T02:16:47;100554.67;;;7.37;64.57
61474;BME280;53694;49.784;30.150;2023-03-18T02:18:11;100553.48;;;7.21;63.93
61474;BME280;53694;49.784;30.150;2023-03-18T02:19:19;100551.12;;;6.88;64.42
61474;BME280;53694;49.784;30.150;2023-03-18T02:20:51;100558.42;;;6.48;65.04
61474;BME280;53694;49.784;30.150;2023-03-18T02:24:03;100559.86;;;5.73;67.38
61474;BME280;53694;49.784;30.150;2023-03-18T02:28:00;100553.81;;;4.66;71.99
61474;BME280;53694;49.784;30.150;2023-03-18T02:29:02;100551.65;;;4.49;72.74
61474;BME280;53694;49.784;30.150;2023-03-18T02:30:17;100565.56;;;4.47;73.62
61474;BME280;53694;49.784;30.150;2023-03-18T02:31:14;100551.19;;;4.61;73.39
61474;BME280;53694;49.784;30.150;2023-03-18T02:32:17;100559.11;;;5.17;71.85
61474;BME280;53694;49.784;30.150;2023-03-18T02:33:22;100559.11;;;5.17;71.85
61474;BME280;53694;49.784;30.150;2023-03-18T02:34:25;100564.45;;;5.50;70.89
61474;BME280;53694;49.784;30.150;2023-03-18T02:35:28;100556.93;;;5.83;70.15
61474;BME280;53694;49.784;30.150;2023-03-18T02:36:32;100561.58;;;6.19;69.75
61474;BME280;53694;49.784;30.150;2023-03-18T02:37:34;100563.45;;;6.55;68.35
61474;BME280;53694;49.784;30.150;2023-03-18T02:38:41;100557.02;;;6.82;66.76
61474;BME280;53694;49.784;30.150;2023-03-18T02:39:43;100557.42;;;6.97;65.61
61474;BME280;53694;49.784;30.150;2023-03-18T02:40:45;100570.09;;;6.93;64.81
61474;BME280;53694;49.784;30.150;2023-03-18T02:41:46;100562.91;;;6.75;65.30
61474;BME280;53694;49.784;30.150;2023-03-18T02:42:48;100554.44;;;6.54;66.21
61474;BME280;53694;49.784;30.150;2023-03-18T02:43:50;100560.71;;;6.32;66.60
61474;BME280;53694;49.784;30.150;2023-03-18T02:44:52;100553.14;;;6.07;67.17
61474;BME280;53694;49.784;30.150;2023-03-18T02:47:05;100561.70;;;5.64;68.69
61474;BME280;53694;49.784;30.150;2023-03-18T02:48:09;100556.67;;;5.43;69.21
61474;BME280;53694;49.784;30.150;2023-03-18T02:49:13;100566.37;;;5.22;69.78
61474;BME280;53694;49.784;30.150;2023-03-18T02:50:15;100563.75;;;5.03;70.55
61474;BME280;53694;49.784;30.150;2023-03-18T02:51:17;100565.71;;;4.85;71.11
61474;BME280;53694;49.784;30.150;2023-03-18T02:52:19;100565.71;;;4.70;72.15
61474;BME280;53694;49.784;30.150;2023-03-18T02:53:20;100563.89;;;4.65;72.79
61474;BME280;53694;49.784;30.150;2023-03-18T02:54:25;100570.47;;;4.78;73.06
61474;BME280;53694;49.784;30.150;2023-03-18T02:55:26;100559.70;;;5.00;72.23
61474;BME280;53694;49.784;30.150;2023-03-18T02:56:28;100562.94;;;5.30;71.37
61474;BME280;53694;49.784;30.150;2023-03-18T02:57:30;100557.69;;;5.61;70.71
61474;BME280;53694;49.784;30.150;2023-03-18T02:58:31;100550.66;;;5.96;69.89
61474;BME280;53694;49.784;30.150;2023-03-18T02:59:33;100553.66;;;6.31;68.34
61474;BME280;53694;49.784;30.150;2023-03-18T03:00:35;100557.72;;;6.65;67.59
61474;BME280;53694;49.784;30.150;2023-03-18T03:01:38;100554.47;;;6.85;65.90
61474;BME280;53694;49.784;30.150;2023-03-18T03:02:40;100557.38;;;6.89;65.27
61474;BME280;53694;49.784;30.150;2023-03-18T03:03:41;100559.23;;;6.80;65.42
61474;BME280;53694;49.784;30.150;2023-03-18T03:04:43;100563.00;;;6.61;65.68
61474;BME280;53694;49.784;30.150;2023-03-18T03:05:44;100556.25;;;6.36;65.94
61474;BME280;53694;49.784;30.150;2023-03-18T03:06:46;100553.84;;;6.12;67.04
61474;BME280;53694;49.784;30.150;2023-03-18T03:07:48;100561.66;;;5.91;67.82
61474;BME280;53694;49.784;30.150;2023-03-18T03:08:50;100563.50;;;5.68;68.43
61474;BME280;53694;49.784;30.150;2023-03-18T03:09:52;100563.45;;;5.46;68.90
61474;BME280;53694;49.784;30.150;2023-03-18T03:10:53;100564.16;;;5.24;69.58
61474;BME280;53694;49.784;30.150;2023-03-18T03:11:55;100568.39;;;5.03;70.37
61474;BME280;53694;49.784;30.150;2023-03-18T03:12:57;100561.09;;;4.84;71.33
61474;BME280;53694;49.784;30.150;2023-03-18T03:13:59;100560.86;;;4.67;71.79
61474;BME280;53694;49.784;30.150;2023-03-18T03:15:00;100570.32;;;4.56;72.19
61474;BME280;53694;49.784;30.150;2023-03-18T03:16:02;100571.34;;;4.60;72.42
61474;BME280;53694;49.784;30.150;2023-03-18T03:17:04;100568.27;;;4.80;72.85
61474;BME280;53694;49.784;30.150;2023-03-18T03:18:06;100572.83;;;5.12;72.16
61474;BME280;53694;49.784;30.150;2023-03-18T03:19:08;100571.12;;;5.44;70.95
61474;BME280;53694;49.784;30.150;2023-03-18T03:20:10;100573.08;;;5.80;69.95
61474;BME280;53694;49.784;30.150;2023-03-18T03:21:13;100563.95;;;6.12;69.18
61474;BME280;53694;49.784;30.150;2023-03-18T03:22:15;100569.15;;;6.44;68.03
61474;BME280;53694;49.784;30.150;2023-03-18T03:23:17;100572.36;;;6.69;67.37
61474;BME280;53694;49.784;30.150;2023-03-18T03:24:18;100568.08;;;6.76;66.06
61474;BME280;53694;49.784;30.150;2023-03-18T03:25:20;100570.76;;;6.68;65.84
61474;BME280;53694;49.784;30.150;2023-03-18T03:26:21;100566.80;;;6.51;66.15
61474;BME280;53694;49.784;30.150;2023-03-18T03:27:23;100564.24;;;6.33;66.88
61474;BME280;53694;49.784;30.150;2023-03-18T03:28:24;100564.75;;;6.12;67.39
61474;BME280;53694;49.784;30.150;2023-03-18T03:29:26;100564.18;;;5.88;67.73
61474;BME280;53694;49.784;30.150;2023-03-18T03:30:28;100572.00;;;5.67;68.52
61474;BME280;53694;49.784;30.150;2023-03-18T03:31:29;100574.66;;;5.44;69.02
61474;BME280;53694;49.784;30.150;2023-03-18T03:32:31;100578.59;;;5.24;69.75
61474;BME280;53694;49.784;30.150;2023-03-18T03:33:32;100574.84;;;5.07;70.28
61474;BME280;53694;49.784;30.150;2023-03-18T03:34:34;100584.99;;;4.87;70.92
61474;BME280;53694;49.784;30.150;2023-03-18T03:35:36;100576.59;;;4.70;71.50
61474;BME280;53694;49.784;30.150;2023-03-18T03:36:38;100582.22;;;4.60;72.09
61474;BME280;53694;49.784;30.150;2023-03-18T03:37:40;100580.52;;;4.64;72.05
61474;BME280;53694;49.784;30.150;2023-03-18T03:38:42;100573.41;;;4.82;72.27
61474;BME280;53694;49.784;30.150;2023-03-18T03:39:43;100578.69;;;5.06;71.51
61474;BME280;53694;49.784;30.150;2023-03-18T03:40:45;100580.30;;;5.34;70.52
61474;BME280;53694;49.784;30.150;2023-03-18T03:41:47;100578.25;;;5.67;70.60
61474;BME280;53694;49.784;30.150;2023-03-18T03:42:49;100566.28;;;6.05;69.33
61474;BME280;53694;49.784;30.150;2023-03-18T03:43:50;100575.86;;;6.38;68.23
61474;BME280;53694;49.784;30.150;2023-03-18T03:44:52;100581.03;;;6.71;66.97
61474;BME280;53694;49.784;30.150;2023-03-18T03:45:53;100579.37;;;6.92;66.11
61474;BME280;53694;49.784;30.150;2023-03-18T03:46:55;100582.48;;;6.99;65.09
61474;BME280;53694;49.784;30.150;2023-03-18T03:47:56;100580.03;;;6.89;65.01
61474;BME280;53694;49.784;30.150;2023-03-18T03:48:58;100580.13;;;6.75;65.45
61474;BME280;53694;49.784;30.150;2023-03-18T03:49:59;100583.17;;;6.51;65.31
61474;BME280;53694;49.784;30.150;2023-03-18T03:51:01;100581.80;;;6.18;65.81
61474;BME280;53694;49.784;30.150;2023-03-18T03:52:03;100578.22;;;5.81;66.71
61474;BME280;53694;49.784;30.150;2023-03-18T03:53:05;100584.92;;;5.47;68.00
61474;BME280;53694;49.784;30.150;2023-03-18T03:54:07;100584.73;;;5.16;69.11
61474;BME280;53694;49.784;30.150;2023-03-18T03:55:11;100589.32;;;4.88;70.13
61474;BME280;53694;49.784;30.150;2023-03-18T03:56:13;100592.48;;;4.63;71.07
61474;BME280;53694;49.784;30.150;2023-03-18T03:57:15;100578.50;;;4.37;72.23
61474;BME280;53694;49.784;30.150;2023-03-18T03:58:17;100588.00;;;4.20;73.08
61474;BME280;53694;49.784;30.150;2023-03-18T03:59:19;100573.59;;;4.20;73.63
61474;BME280;53694;49.784;30.150;2023-03-18T04:00:22;100584.56;;;4.34;73.52
61474;BME280;53694;49.784;30.150;2023-03-18T04:01:24;100587.36;;;4.61;73.32
61474;BME280;53694;49.784;30.150;2023-03-18T04:02:25;100590.34;;;4.92;72.39
61474;BME280;53694;49.784;30.150;2023-03-18T04:03:27;100586.44;;;5.26;71.90
61474;BME280;53694;49.784;30.150;2023-03-18T04:04:28;100587.34;;;5.63;70.88
61474;BME280;53694;49.784;30.150;2023-03-18T04:05:30;100580.65;;;5.96;69.50
61474;BME280;53694;49.784;30.150;2023-03-18T04:06:31;100577.02;;;6.23;67.92
61474;BME280;53694;49.784;30.150;2023-03-18T04:07:33;100575.59;;;6.48;67.68
61474;BME280;53694;49.784;30.150;2023-03-18T04:08:35;100579.75;;;6.68;67.14
61474;BME280;53694;49.784;30.150;2023-03-18T04:09:36;100582.02;;;6.75;66.50
61474;BME280;53694;49.784;30.150;2023-03-18T04:10:38;100573.30;;;6.64;65.85
61474;BME280;53694;49.784;30.150;2023-03-18T04:11:40;100586.03;;;6.46;66.16
61474;BME280;53694;49.784;30.150;2023-03-18T04:12:42;100580.38;;;6.20;66.66
61474;BME280;53694;49.784;30.150;2023-03-18T04:13:43;100576.37;;;5.90;67.32
61474;BME280;53694;49.784;30.150;2023-03-18T04:14:46;100575.75;;;5.57;68.35
61474;BME280;53694;49.784;30.150;2023-03-18T04:15:47;100586.55;;;5.21;69.44
61474;BME280;53694;49.784;30.150;2023-03-18T04:16:49;100585.73;;;4.93;70.85
61474;BME280;53694;49.784;30.150;2023-03-18T04:17:51;100588.59;;;4.69;71.73
61474;BME280;53694;49.784;30.150;2023-03-18T04:18:52;100588.43;;;4.46;72.47
61474;BME280;53694;49.784;30.150;2023-03-18T04:19:54;100582.92;;;4.33;73.28
61474;BME280;53694;49.784;30.150;2023-03-18T04:20:55;100596.23;;;4.34;73.59
61474;BME280;53694;49.784;30.150;2023-03-18T04:21:57;100589.45;;;4.50;73.47
61474;BME280;53694;49.784;30.150;2023-03-18T04:22:58;100591.80;;;4.71;73.13
61474;BME280;53694;49.784;30.150;2023-03-18T04:24:00;100594.39;;;4.95;72.22
61474;BME280;53694;49.784;30.150;2023-03-18T04:25:02;100599.67;;;5.19;71.42
61474;BME280;53694;49.784;30.150;2023-03-18T04:26:04;100600.78;;;5.45;71.02
61474;BME280;53694;49.784;30.150;2023-03-18T04:27:05;100596.13;;;5.73;69.97
61474;BME280;53694;49.784;30.150;2023-03-18T04:28:07;100586.10;;;5.96;69.05
61474;BME280;53694;49.784;30.150;2023-03-18T04:29:08;100585.64;;;6.17;68.19
61474;BME280;53694;49.784;30.150;2023-03-18T04:30:12;100586.58;;;6.35;68.49
61474;BME280;53694;49.784;30.150;2023-03-18T04:31:14;100591.11;;;6.39;67.82
61474;BME280;53694;49.784;30.150;2023-03-18T04:32:15;100580.93;;;6.31;67.55
61474;BME280;53694;49.784;30.150;2023-03-18T04:33:17;100588.50;;;6.12;67.89
61474;BME280;53694;49.784;30.150;2023-03-18T04:34:19;100583.47;;;5.91;68.51
61474;BME280;53694;49.784;30.150;2023-03-18T04:35:21;100581.66;;;5.73;68.84
61474;BME280;53694;49.784;30.150;2023-03-18T04:36:23;100586.73;;;5.52;69.29
61474;BME280;53694;49.784;30.150;2023-03-18T04:37:24;100589.69;;;5.28;69.79
61474;BME280;53694;49.784;30.150;2023-03-18T04:38:26;100585.95;;;5.10;71.24
61474;BME280;53694;49.784;30.150;2023-03-18T04:39:28;100588.14;;;4.94;71.83
61474;BME280;53694;49.784;30.150;2023-03-18T04:40:29;100595.17;;;4.82;72.22
61474;BME280;53694;49.784;30.150;2023-03-18T04:41:31;100590.11;;;4.75;72.50
61474;BME280;53694;49.784;30.150;2023-03-18T04:42:32;100587.50;;;4.84;72.88
61474;BME280;53694;49.784;30.150;2023-03-18T04:43:34;100587.55;;;4.97;72.04
61474;BME280;53694;49.784;30.150;2023-03-18T04:44:35;100587.07;;;5.23;71.58
61474;BME280;53694;49.784;30.150;2023-03-18T04:45:37;100585.76;;;5.48;70.72
61474;BME280;53694;49.784;30.150;2023-03-18T04:46:39;100580.26;;;5.75;69.61
61474;BME280;53694;49.784;30.150;2023-03-18T04:47:41;100576.80;;;5.97;68.54
61474;BME280;53694;49.784;30.150;2023-03-18T04:48:42;100580.98;;;6.17;67.87
61474;BME280;53694;49.784;30.150;2023-03-18T04:49:44;100583.98;;;6.30;67.40
61474;BME280;53694;49.784;30.150;2023-03-18T04:50:46;100578.72;;;6.33;67.69
61474;BME280;53694;49.784;30.150;2023-03-18T04:51:47;100581.06;;;6.26;67.54
61474;BME280;53694;49.784;30.150;2023-03-18T04:52:49;100576.46;;;6.13;67.77
61474;BME280;53694;49.784;30.150;2023-03-18T04:53:51;100578.62;;;5.88;67.97
61474;BME280;53694;49.784;30.150;2023-03-18T04:54:52;100587.83;;;5.65;68.56
61474;BME280;53694;49.784;30.150;2023-03-18T04:55:54;100587.38;;;5.35;69.20
61474;BME280;53694;49.784;30.150;2023-03-18T04:56:55;100585.12;;;5.10;70.23
61474;BME280;53694;49.784;30.150;2023-03-18T04:57:57;100583.08;;;4.88;71.04
61474;BME280;53694;49.784;30.150;2023-03-18T04:58:59;100585.06;;;4.68;72.02
61474;BME280;53694;49.784;30.150;2023-03-18T05:00:00;100584.95;;;4.60;73.00
61474;BME280;53694;49.784;30.150;2023-03-18T05:01:02;100587.79;;;4.68;73.19
61474;BME280;53694;49.784;30.150;2023-03-18T05:02:03;100590.96;;;4.89;72.89
61474;BME280;53694;49.784;30.150;2023-03-18T05:03:05;100592.00;;;5.21;72.70
61474;BME280;53694;49.784;30.150;2023-03-18T05:04:07;100587.14;;;5.59;71.74
61474;BME280;53694;49.784;30.150;2023-03-18T05:05:09;100595.41;;;5.95;70.40
61474;BME280;53694;49.784;30.150;2023-03-18T05:06:19;100596.87;;;6.60;67.55
61474;BME280;53694;49.784;30.150;2023-03-18T05:07:18;100596.87;;;6.60;67.55
61474;BME280;53694;49.784;30.150;2023-03-18T05:08:20;100589.02;;;6.90;66.51
61474;BME280;53694;49.784;30.150;2023-03-18T05:09:22;100596.03;;;7.13;66.27
61474;BME280;53694;49.784;30.150;2023-03-18T05:10:23;100590.93;;;7.20;65.40
61474;BME280;53694;49.784;30.150;2023-03-18T05:11:26;100598.47;;;7.15;65.29
61474;BME280;53694;49.784;30.150;2023-03-18T05:12:27;100599.98;;;6.98;65.45
61474;BME280;53694;49.784;30.150;2023-03-18T05:13:29;100593.13;;;6.79;65.70
61474;BME280;53694;49.784;30.150;2023-03-18T05:14:30;100597.48;;;6.57;66.02
61474;BME280;53694;49.784;30.150;2023-03-18T05:15:32;100592.64;;;6.32;66.26
61474;BME280;53694;49.784;30.150;2023-03-18T05:16:34;100602.66;;;6.00;66.65
61474;BME280;53694;49.784;30.150;2023-03-18T05:17:36;100605.30;;;5.64;67.71
61474;BME280;53694;49.784;30.150;2023-03-18T05:18:37;100606.23;;;5.32;68.85
61474;BME280;53694;49.784;30.150;2023-03-18T05:19:40;100607.52;;;5.07;70.20
61474;BME280;53694;49.784;30.150;2023-03-18T05:20:42;100608.69;;;4.87;71.14
61474;BME280;53694;49.784;30.150;2023-03-18T05:21:44;100609.16;;;4.75;71.71
61474;BME280;53694;49.784;30.150;2023-03-18T05:22:45;100610.36;;;4.69;72.14
61474;BME280;53694;49.784;30.150;2023-03-18T05:23:46;100608.26;;;4.80;72.85
61474;BME280;53694;49.784;30.150;2023-03-18T05:24:48;100613.06;;;5.01;72.18
61474;BME280;53694;49.784;30.150;2023-03-18T05:25:50;100609.55;;;5.29;71.36
61474;BME280;53694;49.784;30.150;2023-03-18T05:26:52;100609.14;;;5.63;70.99
61474;BME280;53694;49.784;30.150;2023-03-18T05:27:53;100597.01;;;5.96;69.48
61474;BME280;53694;49.784;30.150;2023-03-18T05:28:55;100600.95;;;6.26;68.18
61474;BME280;53694;49.784;30.150;2023-03-18T05:29:56;100606.93;;;6.51;66.83
61474;BME280;53694;49.784;30.150;2023-03-18T05:30:58;100606.86;;;6.65;66.40
61474;BME280;53694;49.784;30.150;2023-03-18T05:32:00;100606.86;;;6.65;66.03
61474;BME280;53694;49.784;30.150;2023-03-18T05:33:01;100613.86;;;6.57;66.31
61474;BME280;53694;49.784;30.150;2023-03-18T05:34:03;100617.27;;;6.40;66.60